Time;durP1;ratioP1;P1;durP2;ratioP2;P2;SDS_P1;SDS_P2;PMS_P1;PMS_P2;Temp;Humidity;BMP_temperature;BMP_pressure;BME280_temperature;BME280_humidity;BME280_pressure;Samples;Min_cycle;Max_cycle;Signal;HPM_P1;HPM_P2
2021/11/21 00:00:07;;;;;;;8.00;6.90;;;;;;;;;;4974689;28;20205;-86
2021/11/21 00:02:34;;;;;;;7.77;6.77;;;;;;;;;;4975055;28;20237;-86
2021/11/21 00:05:01;;;;;;;6.73;5.53;;;;;;;;;;4974397;28;20247;-85
2021/11/21 00:07:29;;;;;;;6.43;5.33;;;;;;;;;;4974802;28;20205;-85
2021/11/21 00:09:57;;;;;;;5.87;5.27;;;;;;;;;;4974789;28;20296;-86
2021/11/21 00:12:25;;;;;;;6.13;4.80;;;;;;;;;;4975181;28;20584;-85
2021/11/21 00:14:52;;;;;;;7.70;6.30;;;;;;;;;;4974668;28;20201;-85
2021/11/21 00:17:19;;;;;;;6.07;5.33;;;;;;;;;;4956433;28;20209;-85
2021/11/21 00:19:46;;;;;;;6.87;6.07;;;;;;;;;;4955204;29;20228;-85
2021/11/21 00:22:15;;;;;;;10.87;9.73;;;;;;;;;;4955296;29;20201;-85
2021/11/21 00:24:43;;;;;;;15.63;12.57;;;;;;;;;;4955009;29;20202;-85
2021/11/21 00:27:12;;;;;;;10.80;8.60;;;;;;;;;;4955103;29;20656;-85
2021/11/21 00:29:39;;;;;;;6.27;5.67;;;;;;;;;;4955064;29;20244;-85
2021/11/21 00:32:07;;;;;;;7.20;6.17;;;;;;;;;;4955167;29;20268;-85
2021/11/21 00:34:35;;;;;;;8.33;6.40;;;;;;;;;;4954730;29;20674;-84
2021/11/21 00:37:02;;;;;;;7.40;6.70;;;;;;;;;;4955038;29;20198;-85
2021/11/21 00:39:29;;;;;;;7.30;6.00;;;;;;;;;;4967219;28;20209;-84
2021/11/21 00:41:57;;;;;;;7.10;6.40;;;;;;;;;;4973195;28;20228;-85
2021/11/21 00:44:25;;;;;;;7.90;6.97;;;;;;;;;;4973811;28;20209;-85
2021/11/21 00:46:53;;;;;;;6.80;5.50;;;;;;;;;;4973914;28;20312;-85
2021/11/21 00:49:20;;;;;;;6.87;5.10;;;;;;;;;;4973951;28;20280;-85
2021/11/21 00:51:49;;;;;;;8.70;5.63;;;;;;;;;;4974292;28;20204;-84
2021/11/21 00:54:26;;;;;;;5.67;5.17;;;;;;;;;;4973892;28;20296;-85
2021/11/21 00:56:54;;;;;;;6.37;5.37;;;;;;;;;;4973715;28;20255;-85
2021/11/21 00:59:21;;;;;;;5.93;5.40;;;;;;;;;;4973890;28;20265;-85
2021/11/21 01:01:51;;;;;;;5.60;5.10;;;;;;;;;;4973594;28;20213;-85
2021/11/21 01:04:19;;;;;;;6.00;5.50;;;;;;;;;;4973664;28;20189;-84
2021/11/21 01:06:46;;;;;;;6.53;5.43;;;;;;;;;;4973991;28;20603;-84
2021/11/21 01:09:14;;;;;;;17.53;6.90;;;;;;;;;;4973642;28;20201;-85
2021/11/21 01:11:41;;;;;;;7.00;6.30;;;;;;;;;;4973717;28;20201;-85
2021/11/21 01:14:09;;;;;;;7.33;6.13;;;;;;;;;;4973454;28;20236;-84
2021/11/21 01:16:37;;;;;;;5.87;5.27;;;;;;;;;;4960248;28;20216;-85
2021/11/21 01:19:06;;;;;;;5.97;5.30;;;;;;;;;;4954242;29;20245;-85
2021/11/21 01:21:33;;;;;;;5.23;4.73;;;;;;;;;;4954162;29;20284;-85
2021/11/21 01:24:01;;;;;;;6.93;5.87;;;;;;;;;;4954074;29;20245;-85
2021/11/21 01:26:28;;;;;;;5.37;4.97;;;;;;;;;;4954056;29;20222;-85
2021/11/21 01:28:56;;;;;;;6.07;5.47;;;;;;;;;;4954245;29;20205;-85
2021/11/21 01:31:23;;;;;;;5.53;5.03;;;;;;;;;;4954085;29;20292;-85
2021/11/21 01:33:50;;;;;;;6.33;5.47;;;;;;;;;;4954008;29;20752;-85
2021/11/21 01:36:19;;;;;;;5.57;4.83;;;;;;;;;;4953767;29;20201;-85
2021/11/21 01:38:47;;;;;;;5.37;4.87;;;;;;;;;;4954083;29;20198;-85
2021/11/21 01:41:15;;;;;;;6.03;5.43;;;;;;;;;;4953836;29;20205;-85
2021/11/21 01:43:43;;;;;;;5.93;4.93;;;;;;;;;;4954110;29;20229;-85
2021/11/21 01:46:10;;;;;;;7.83;5.63;;;;;;;;;;4954098;29;20647;-85
2021/11/21 01:48:37;;;;;;;8.17;5.37;;;;;;;;;;4953955;29;20202;-85
2021/11/21 01:51:07;;;;;;;6.20;4.90;;;;;;;;;;4953865;29;20288;-85
2021/11/21 01:53:36;;;;;;;5.70;5.20;;;;;;;;;;4954019;29;20206;-86
2021/11/21 01:56:04;;;;;;;5.17;4.67;;;;;;;;;;4953440;29;20206;-86
2021/11/21 01:58:31;;;;;;;5.53;5.03;;;;;;;;;;4953846;29;20285;-85
2021/11/21 02:00:58;;;;;;;6.63;5.23;;;;;;;;;;4953426;29;20202;-85
2021/11/21 02:03:26;;;;;;;6.37;5.27;;;;;;;;;;4953589;29;20316;-85
2021/11/21 02:05:53;;;;;;;6.60;5.47;;;;;;;;;;4953887;29;20316;-85
2021/11/21 02:08:20;;;;;;;6.90;5.30;;;;;;;;;;4953763;29;20260;-85
2021/11/21 02:10:49;;;;;;;5.83;5.33;;;;;;;;;;4953825;29;20668;-85
2021/11/21 02:13:16;;;;;;;5.60;4.63;;;;;;;;;;4953923;29;20651;-85
2021/11/21 02:15:44;;;;;;;6.07;5.53;;;;;;;;;;4953473;29;20670;-85
2021/11/21 02:18:13;;;;;;;5.67;5.10;;;;;;;;;;4953800;29;20197;-86
2021/11/21 02:20:53;;;;;;;5.83;5.23;;;;;;;;;;4953282;29;20202;-85
2021/11/21 02:23:21;;;;;;;5.70;4.80;;;;;;;;;;4953773;29;20193;-86
2021/11/21 02:25:48;;;;;;;5.60;5.10;;;;;;;;;;4953515;29;20201;-85
2021/11/21 02:28:16;;;;;;;8.10;5.77;;;;;;;;;;4954015;29;20205;-85
2021/11/21 02:30:44;;;;;;;5.37;4.87;;;;;;;;;;4953254;29;20300;-86
2021/11/21 02:33:13;;;;;;;6.47;5.73;;;;;;;;;;4953608;29;20198;-85
2021/11/21 02:35:42;;;;;;;7.27;4.77;;;;;;;;;;4953604;29;20582;-85
2021/11/21 02:38:12;;;;;;;5.67;5.10;;;;;;;;;;4953587;29;20206;-85
2021/11/21 02:40:40;;;;;;;6.00;5.40;;;;;;;;;;4953382;29;20237;-84
2021/11/21 02:43:07;;;;;;;5.60;5.00;;;;;;;;;;4953455;29;20202;-85
2021/11/21 02:45:35;;;;;;;5.97;5.37;;;;;;;;;;4953210;29;20198;-85
2021/11/21 02:48:03;;;;;;;17.63;12.83;;;;;;;;;;4953658;29;20234;-85
2021/11/21 02:50:31;;;;;;;7.77;6.77;;;;;;;;;;4953340;29;20665;-85
2021/11/21 02:53:00;;;;;;;9.10;5.97;;;;;;;;;;4953792;29;20656;-85
2021/11/21 02:55:32;;;;;;;6.47;4.87;;;;;;;;;;4953518;29;20588;-85
2021/11/21 02:58:00;;;;;;;7.03;4.90;;;;;;;;;;4954049;29;20197;-85
2021/11/21 03:00:27;;;;;;;5.73;5.13;;;;;;;;;;4953176;29;20293;-86
2021/11/21 03:02:54;;;;;;;6.53;4.47;;;;;;;;;;4953157;29;20403;-85
2021/11/21 03:05:22;;;;;;;6.53;5.90;;;;;;;;;;4953402;29;20272;-85
2021/11/21 03:07:49;;;;;;;7.43;6.40;;;;;;;;;;4954729;28;20284;-85
2021/11/21 03:10:19;;;;;;;5.53;5.03;;;;;;;;;;4956962;29;20241;-85
2021/11/21 03:12:50;;;;;;;7.63;6.33;;;;;;;;;;4957219;29;20213;-85
2021/11/21 03:15:18;;;;;;;9.30;5.60;;;;;;;;;;4956316;29;20189;-86
2021/11/21 03:17:46;;;;;;;7.40;6.70;;;;;;;;;;4956867;29;20232;-86
2021/11/21 03:20:14;;;;;;;9.80;7.17;;;;;;;;;;4956420;29;20193;-86
2021/11/21 03:22:42;;;;;;;5.83;5.23;;;;;;;;;;4956602;29;20252;-85
2021/11/21 03:25:10;;;;;;;7.63;6.20;;;;;;;;;;4956240;29;20261;-85
2021/11/21 03:27:38;;;;;;;6.33;5.70;;;;;;;;;;4956187;29;20588;-85
2021/11/21 03:30:08;;;;;;;6.07;5.50;;;;;;;;;;4956208;29;20256;-85
2021/11/21 03:32:35;;;;;;;6.77;6.07;;;;;;;;;;4956487;29;20186;-85
2021/11/21 03:35:03;;;;;;;6.70;5.43;;;;;;;;;;4955876;29;20242;-84
2021/11/21 03:37:30;;;;;;;6.53;5.93;;;;;;;;;;4956152;29;20197;-85
2021/11/21 03:39:57;;;;;;;7.30;6.60;;;;;;;;;;4956016;29;20202;-85
2021/11/21 03:42:25;;;;;;;6.73;6.03;;;;;;;;;;4956050;29;20302;-85
2021/11/21 03:44:52;;;;;;;6.83;6.07;;;;;;;;;;4955768;29;20713;-85
2021/11/21 03:47:21;;;;;;;5.70;5.20;;;;;;;;;;4956248;29;20329;-85
2021/11/21 03:49:48;;;;;;;6.10;5.60;;;;;;;;;;4955976;29;20194;-85
2021/11/21 03:52:15;;;;;;;6.00;5.40;;;;;;;;;;4956172;29;20202;-85
2021/11/21 03:54:43;;;;;;;7.73;6.87;;;;;;;;;;4955829;29;20244;-86
2021/11/21 03:57:11;;;;;;;9.67;8.30;;;;;;;;;;4955973;29;20201;-86
2021/11/21 03:59:39;;;;;;;9.07;8.17;;;;;;;;;;4955629;29;20197;-86
2021/11/21 04:02:06;;;;;;;7.70;6.90;;;;;;;;;;4955528;29;20269;-86
2021/11/21 04:04:35;;;;;;;39.40;25.27;;;;;;;;;;4955722;29;20190;-86
2021/11/21 04:07:03;;;;;;;13.13;11.43;;;;;;;;;;4955913;29;20229;-85
2021/11/21 04:09:30;;;;;;;9.50;8.50;;;;;;;;;;4958921;28;20289;-85
2021/11/21 04:11:57;;;;;;;7.20;6.50;;;;;;;;;;4974973;28;20333;-86
2021/11/21 04:14:25;;;;;;;6.97;6.27;;;;;;;;;;4974563;28;20300;-86
2021/11/21 04:16:52;;;;;;;7.77;5.47;;;;;;;;;;4975147;28;20197;-86
2021/11/21 04:19:19;;;;;;;6.73;6.10;;;;;;;;;;4973921;28;20197;-85
2021/11/21 04:21:48;;;;;;;8.50;6.93;;;;;;;;;;4974441;28;20205;-86
2021/11/21 04:24:15;;;;;;;8.10;7.07;;;;;;;;;;4974758;28;20201;-85
2021/11/21 04:26:44;;;;;;;6.93;5.47;;;;;;;;;;4974847;28;20228;-85
2021/11/21 04:29:11;;;;;;;6.33;5.70;;;;;;;;;;4974426;28;20776;-85
2021/11/21 04:31:39;;;;;;;7.63;6.50;;;;;;;;;;4974441;28;20201;-85
2021/11/21 04:34:06;;;;;;;7.73;7.00;;;;;;;;;;4974505;28;20243;-85
2021/11/21 04:36:34;;;;;;;10.00;6.57;;;;;;;;;;4974681;28;20236;-86
2021/11/21 04:39:04;;;;;;;9.53;7.53;;;;;;;;;;4974086;28;20271;-85
2021/11/21 04:41:31;;;;;;;8.30;6.60;;;;;;;;;;4974899;28;20192;-85
2021/11/21 04:43:58;;;;;;;7.03;6.37;;;;;;;;;;4974439;28;20201;-86
2021/11/21 04:46:25;;;;;;;6.67;6.00;;;;;;;;;;4974064;28;20340;-85
2021/11/21 04:48:53;;;;;;;8.90;7.53;;;;;;;;;;4974562;28;20205;-86
2021/11/21 04:51:20;;;;;;;7.67;6.97;;;;;;;;;;4974213;28;20280;-85
2021/11/21 04:53:48;;;;;;;7.80;7.10;;;;;;;;;;4974343;28;20737;-86
2021/11/21 04:56:17;;;;;;;7.33;6.40;;;;;;;;;;4973883;28;20239;-86
2021/11/21 04:58:44;;;;;;;8.00;7.00;;;;;;;;;;4974015;28;20197;-85
2021/11/21 05:01:11;;;;;;;13.63;12.33;;;;;;;;;;4973676;28;20209;-86
2021/11/21 05:03:39;;;;;;;21.13;18.90;;;;;;;;;;4973872;28;20243;-85
2021/11/21 05:06:06;;;;;;;22.13;17.90;;;;;;;;;;4973748;28;20197;-85
2021/11/21 05:08:33;;;;;;;28.23;19.83;;;;;;;;;;4973839;28;20783;-85
2021/11/21 05:11:01;;;;;;;151.57;81.07;;;;;;;;;;4973671;28;20200;-87
2021/11/21 05:13:29;;;;;;;78.87;43.27;;;;;;;;;;4972200;28;20617;-85
2021/11/21 05:15:57;;;;;;;21.00;16.77;;;;;;;;;;4973497;28;20197;-86
2021/11/21 05:18:24;;;;;;;15.63;13.87;;;;;;;;;;4973656;28;20201;-85
2021/11/21 05:20:51;;;;;;;29.70;24.57;;;;;;;;;;4973300;28;20236;-85
2021/11/21 05:23:18;;;;;;;30.03;25.40;;;;;;;;;;4973865;28;20283;-85
2021/11/21 05:25:46;;;;;;;43.43;33.83;;;;;;;;;;4973272;28;20764;-85
2021/11/21 05:28:13;;;;;;;85.53;58.93;;;;;;;;;;4971451;28;20784;-85
2021/11/21 05:30:47;;;;;;;81.30;58.23;;;;;;;;;;4972580;28;20231;-87
2021/11/21 05:33:14;;;;;;;50.60;37.70;;;;;;;;;;4973578;28;20189;-84
2021/11/21 05:35:41;;;;;;;43.27;32.83;;;;;;;;;;4973544;28;20648;-84
2021/11/21 05:38:09;;;;;;;49.73;37.07;;;;;;;;;;4972356;28;20292;-85
2021/11/21 05:40:36;;;;;;;44.93;34.10;;;;;;;;;;4973476;28;20228;-85
2021/11/21 05:43:04;;;;;;;33.07;26.53;;;;;;;;;;4970079;28;20256;-85
2021/11/21 05:45:31;;;;;;;44.47;35.53;;;;;;;;;;4970663;28;20213;-85
2021/11/21 05:48:17;;;;;;;45.23;37.23;;;;;;;;;;4973082;28;20228;-86
2021/11/21 05:50:45;;;;;;;28.57;23.60;;;;;;;;;;4973689;28;20205;-85
2021/11/21 05:53:12;;;;;;;18.90;16.10;;;;;;;;;;4973369;28;20207;-86
2021/11/21 05:55:39;;;;;;;14.90;13.40;;;;;;;;;;4973499;28;20192;-86
2021/11/21 05:58:06;;;;;;;11.83;10.63;;;;;;;;;;4973437;28;20671;-86
2021/11/21 06:00:34;;;;;;;18.10;15.63;;;;;;;;;;4973440;28;20599;-86
2021/11/21 06:03:03;;;;;;;14.33;12.87;;;;;;;;;;4973179;28;20233;-86
2021/11/21 06:05:30;;;;;;;41.90;29.83;;;;;;;;;;4973109;28;20295;-86
2021/11/21 06:07:58;;;;;;;24.77;20.47;;;;;;;;;;4973275;28;20221;-86
2021/11/21 06:10:26;;;;;;;23.03;18.47;;;;;;;;;;4973110;28;20200;-86
2021/11/21 06:12:53;;;;;;;15.73;14.17;;;;;;;;;;4973193;28;20724;-86
2021/11/21 06:15:20;;;;;;;19.00;16.63;;;;;;;;;;4973077;28;20240;-86
2021/11/21 06:17:47;;;;;;;106.30;81.70;;;;;;;;;;4972715;28;20685;-86
2021/11/21 06:20:16;;;;;;;55.57;41.97;;;;;;;;;;4972948;28;20197;-86
2021/11/21 06:22:43;;;;;;;19.20;17.20;;;;;;;;;;4973094;28;20209;-86
2021/11/21 06:25:11;;;;;;;17.23;15.33;;;;;;;;;;4973101;28;20232;-86
2021/11/21 06:27:39;;;;;;;17.97;13.90;;;;;;;;;;4972908;28;20783;-86
2021/11/21 06:30:07;;;;;;;14.10;12.70;;;;;;;;;;4972866;28;20240;-86
2021/11/21 06:32:35;;;;;;;22.70;17.47;;;;;;;;;;4973428;28;20233;-86
2021/11/21 06:35:03;;;;;;;16.10;14.47;;;;;;;;;;4972851;28;20201;-86
2021/11/21 06:37:32;;;;;;;16.20;14.50;;;;;;;;;;4972909;28;20193;-86
2021/11/21 06:39:59;;;;;;;17.43;13.73;;;;;;;;;;4972862;28;20205;-86
2021/11/21 06:42:26;;;;;;;14.47;12.93;;;;;;;;;;4973873;28;20252;-86
2021/11/21 06:44:54;;;;;;;16.50;13.40;;;;;;;;;;4976392;28;20251;-86
2021/11/21 06:47:22;;;;;;;12.97;11.57;;;;;;;;;;4976475;28;20225;-86
2021/11/21 06:49:49;;;;;;;27.27;22.63;;;;;;;;;;4976460;28;20197;-86
2021/11/21 06:52:18;;;;;;;32.60;26.47;;;;;;;;;;4976711;28;20279;-86
2021/11/21 06:54:47;;;;;;;76.70;54.00;;;;;;;;;;4976370;28;20197;-86
2021/11/21 06:57:15;;;;;;;60.63;41.20;;;;;;;;;;4976346;28;20201;-86
2021/11/21 06:59:43;;;;;;;55.27;36.37;;;;;;;;;;4976537;28;20209;-85
2021/11/21 07:02:10;;;;;;;111.93;65.73;;;;;;;;;;4976304;28;20233;-86
2021/11/21 07:04:37;;;;;;;39.37;28.17;;;;;;;;;;4976038;28;20293;-87
2021/11/21 07:07:08;;;;;;;52.70;35.67;;;;;;;;;;4976100;28;20209;-86
2021/11/21 07:09:35;;;;;;;39.30;27.47;;;;;;;;;;4976010;28;20716;-86
2021/11/21 07:12:05;;;;;;;20.87;16.80;;;;;;;;;;4976143;28;20248;-86
2021/11/21 07:14:32;;;;;;;41.73;30.40;;;;;;;;;;4975803;28;20764;-85
2021/11/21 07:17:00;;;;;;;115.50;60.63;;;;;;;;;;4976024;28;20236;-86
2021/11/21 07:19:27;;;;;;;36.30;23.83;;;;;;;;;;4975798;28;20197;-85
2021/11/21 07:21:54;;;;;;;32.10;21.13;;;;;;;;;;4975957;28;20201;-86
2021/11/21 07:24:22;;;;;;;26.23;19.50;;;;;;;;;;4975979;28;20304;-85
2021/11/21 07:26:49;;;;;;;14.40;11.87;;;;;;;;;;4975924;28;20193;-85
2021/11/21 07:29:18;;;;;;;13.67;11.77;;;;;;;;;;4975584;28;20261;-85
2021/11/21 07:31:45;;;;;;;15.37;13.73;;;;;;;;;;4975477;28;20584;-86
2021/11/21 07:34:12;;;;;;;24.17;17.80;;;;;;;;;;4975780;28;20244;-85
2021/11/21 07:36:40;;;;;;;15.60;14.00;;;;;;;;;;4975595;28;20201;-86
2021/11/21 07:39:07;;;;;;;15.50;11.90;;;;;;;;;;4975566;28;20287;-85
2021/11/21 07:41:34;;;;;;;12.67;9.97;;;;;;;;;;4975591;28;20197;-86
2021/11/21 07:44:03;;;;;;;11.73;10.53;;;;;;;;;;4975542;28;20673;-87
2021/11/21 07:46:32;;;;;;;10.47;9.37;;;;;;;;;;4975467;28;20197;-86
2021/11/21 07:48:59;;;;;;;12.43;10.70;;;;;;;;;;4975465;28;20764;-87
2021/11/21 07:51:27;;;;;;;16.40;13.97;;;;;;;;;;4975289;28;20212;-86
2021/11/21 07:53:54;;;;;;;9.00;8.20;;;;;;;;;;4974192;28;20205;-85
2021/11/21 07:56:21;;;;;;;11.10;9.33;;;;;;;;;;4974955;28;20259;-86
2021/11/21 07:58:48;;;;;;;10.23;9.33;;;;;;;;;;4975263;28;20228;-86
2021/11/21 08:01:17;;;;;;;10.03;9.00;;;;;;;;;;4975153;28;20241;-86
2021/11/21 08:03:46;;;;;;;9.33;8.43;;;;;;;;;;4974465;28;20340;-86
2021/11/21 08:06:14;;;;;;;7.53;6.40;;;;;;;;;;4975323;28;20665;-86
2021/11/21 08:08:41;;;;;;;7.27;6.67;;;;;;;;;;4967979;28;20605;-86
2021/11/21 08:11:08;;;;;;;7.43;6.70;;;;;;;;;;4973617;28;20220;-86
2021/11/21 08:13:39;;;;;;;7.03;6.27;;;;;;;;;;4974981;28;20209;-86
2021/11/21 08:16:06;;;;;;;8.00;6.93;;;;;;;;;;4973223;28;20189;-85
2021/11/21 08:18:33;;;;;;;7.63;6.10;;;;;;;;;;4968473;28;20292;-85
2021/11/21 08:21:02;;;;;;;7.37;6.67;;;;;;;;;;4955197;29;20685;-86
2021/11/21 08:23:29;;;;;;;8.30;6.63;;;;;;;;;;4955363;29;20292;-86
2021/11/21 08:25:57;;;;;;;8.20;7.50;;;;;;;;;;4958795;28;20299;-86
2021/11/21 08:28:24;;;;;;;7.67;6.87;;;;;;;;;;4974361;28;20280;-86
2021/11/21 08:30:51;;;;;;;9.13;7.00;;;;;;;;;;4974287;28;20201;-87
2021/11/21 08:33:18;;;;;;;9.07;8.17;;;;;;;;;;4974797;28;20229;-87
2021/11/21 08:35:46;;;;;;;10.63;7.37;;;;;;;;;;4974245;28;20225;-87
2021/11/21 08:38:15;;;;;;;8.23;7.43;;;;;;;;;;4974424;28;20607;-85
2021/11/21 08:40:42;;;;;;;9.67;6.90;;;;;;;;;;4974475;28;20263;-85
2021/11/21 08:43:10;;;;;;;8.23;7.43;;;;;;;;;;4974343;28;20207;-84
2021/11/21 08:45:37;;;;;;;8.20;7.40;;;;;;;;;;4974283;28;20209;-85
2021/11/21 08:48:05;;;;;;;7.77;7.10;;;;;;;;;;4974118;28;20330;-84
2021/11/21 08:50:33;;;;;;;8.43;7.63;;;;;;;;;;4973902;28;20693;-86
2021/11/21 08:53:00;;;;;;;8.00;7.30;;;;;;;;;;4974440;28;20280;-84
2021/11/21 08:55:29;;;;;;;7.80;7.07;;;;;;;;;;4973782;28;20262;-83
2021/11/21 08:57:56;;;;;;;11.17;8.27;;;;;;;;;;4973662;28;20207;-83
2021/11/21 09:00:24;;;;;;;13.23;9.23;;;;;;;;;;4973971;28;20583;-84
2021/11/21 09:02:51;;;;;;;13.53;6.20;;;;;;;;;;4973718;28;20233;-84
2021/11/21 09:05:19;;;;;;;7.63;6.83;;;;;;;;;;4973728;28;20199;-84
2021/11/21 09:07:46;;;;;;;9.60;8.60;;;;;;;;;;4973727;28;20634;-84
2021/11/21 09:10:16;;;;;;;8.90;6.73;;;;;;;;;;4973536;28;20595;-84
2021/11/21 09:12:45;;;;;;;8.70;7.63;;;;;;;;;;4973686;28;20208;-84
2021/11/21 09:15:15;;;;;;;9.17;8.27;;;;;;;;;;4973526;28;20295;-84
2021/11/21 09:17:42;;;;;;;7.63;6.97;;;;;;;;;;4973628;28;20215;-84
2021/11/21 09:20:11;;;;;;;13.07;11.23;;;;;;;;;;4973257;28;20280;-83
2021/11/21 09:22:38;;;;;;;10.87;9.60;;;;;;;;;;4973542;28;20267;-84
2021/11/21 09:25:06;;;;;;;9.70;8.70;;;;;;;;;;4973323;28;20243;-84
2021/11/21 09:27:33;;;;;;;13.33;9.77;;;;;;;;;;4973491;28;20197;-84
2021/11/21 09:30:02;;;;;;;14.30;12.13;;;;;;;;;;4972960;28;20336;-84
2021/11/21 09:32:29;;;;;;;18.10;14.97;;;;;;;;;;4973366;28;20737;-84
2021/11/21 09:34:57;;;;;;;10.13;8.93;;;;;;;;;;4973522;28;20712;-84
2021/11/21 09:37:24;;;;;;;12.90;11.17;;;;;;;;;;4973233;28;20296;-85
2021/11/21 09:39:51;;;;;;;15.20;9.77;;;;;;;;;;4972891;28;20256;-85
2021/11/21 09:42:18;;;;;;;9.97;9.00;;;;;;;;;;4973150;28;20250;-84
2021/11/21 09:44:46;;;;;;;11.47;10.20;;;;;;;;;;4973090;28;20246;-83
2021/11/21 09:47:15;;;;;;;13.30;10.63;;;;;;;;;;4973131;28;20703;-84
2021/11/21 09:49:42;;;;;;;12.67;9.77;;;;;;;;;;4972931;28;20319;-83
2021/11/21 09:52:11;;;;;;;11.90;10.57;;;;;;;;;;4973210;28;20205;-84
2021/11/21 09:54:38;;;;;;;10.23;8.43;;;;;;;;;;4972796;28;20201;-84
2021/11/21 09:57:06;;;;;;;11.57;9.00;;;;;;;;;;4973074;28;20200;-83
2021/11/21 09:59:54;;;;;;;9.30;8.37;;;;;;;;;;4972878;28;20213;-83
2021/11/21 10:02:25;;;;;;;9.77;8.77;;;;;;;;;;4972817;28;20322;-83
2021/11/21 10:04:53;;;;;;;9.93;7.63;;;;;;;;;;4972889;28;20593;-83
2021/11/21 10:07:22;;;;;;;10.40;8.07;;;;;;;;;;4972991;28;20203;-84
2021/11/21 10:09:49;;;;;;;9.57;7.43;;;;;;;;;;4972689;28;20263;-83
2021/11/21 10:12:16;;;;;;;10.17;9.03;;;;;;;;;;4972673;28;20205;-84
2021/11/21 10:14:56;;;;;;;11.27;9.10;;;;;;;;;;4973043;28;20644;-83
2021/11/21 10:17:26;;;;;;;10.03;8.93;;;;;;;;;;4973845;28;20280;-83
2021/11/21 10:20:13;;;;;;;12.77;8.37;;;;;;;;;;4976726;28;20193;-84
2021/11/21 10:22:54;;;;;;;8.33;7.33;;;;;;;;;;4976534;28;20280;-83
2021/11/21 10:25:42;;;;;;;7.80;7.10;;;;;;;;;;4976570;28;20189;-83
2021/11/21 10:28:12;;;;;;;8.23;7.43;;;;;;;;;;4976629;28;20189;-83
2021/11/21 10:30:57;;;;;;;9.27;7.63;;;;;;;;;;4976822;28;20204;-83
2021/11/21 10:33:28;;;;;;;8.83;8.03;;;;;;;;;;4976784;28;20692;-83
2021/11/21 10:35:57;;;;;;;10.20;8.93;;;;;;;;;;4976454;28;20194;-83
2021/11/21 10:38:32;;;;;;;8.10;7.40;;;;;;;;;;4976546;28;20205;-83
2021/11/21 10:41:00;;;;;;;9.00;7.63;;;;;;;;;;4976357;28;20669;-83
2021/11/21 10:43:27;;;;;;;8.57;7.67;;;;;;;;;;4976466;28;20197;-83
2021/11/21 10:45:55;;;;;;;8.27;7.43;;;;;;;;;;4976188;28;20228;-83
2021/11/21 10:48:30;;;;;;;7.43;6.63;;;;;;;;;;4976063;28;20197;-84
2021/11/21 10:50:58;;;;;;;10.63;7.13;;;;;;;;;;4976071;28;20185;-83
2021/11/21 10:53:25;;;;;;;9.73;7.17;;;;;;;;;;4976531;28;20205;-83
2021/11/21 10:56:11;;;;;;;7.57;6.87;;;;;;;;;;4975974;28;20201;-83
2021/11/21 10:58:50;;;;;;;8.97;7.27;;;;;;;;;;4976187;28;20588;-83
2021/11/21 11:01:22;;;;;;;7.17;6.47;;;;;;;;;;4975832;28;20193;-82
2021/11/21 11:04:11;;;;;;;8.97;6.97;;;;;;;;;;4975866;28;20232;-82
2021/11/21 11:06:39;;;;;;;7.67;6.93;;;;;;;;;;4975965;28;20646;-82
2021/11/21 11:09:31;;;;;;;8.13;6.70;;;;;;;;;;4975530;28;20315;-82
2021/11/21 11:11:58;;;;;;;7.73;6.93;;;;;;;;;;4956923;28;20204;-82
2021/11/21 11:14:25;;;;;;;8.93;7.87;;;;;;;;;;4975947;28;20259;-82
2021/11/21 11:16:56;;;;;;;9.30;8.40;;;;;;;;;;4975563;28;20636;-82
2021/11/21 11:19:26;;;;;;;11.67;8.43;;;;;;;;;;4975685;28;20220;-82
2021/11/21 11:21:54;;;;;;;12.70;10.03;;;;;;;;;;4975774;28;20189;-83
2021/11/21 11:24:22;;;;;;;7.83;7.07;;;;;;;;;;4975804;28;20194;-82
2021/11/21 11:26:56;;;;;;;7.53;6.83;;;;;;;;;;4975753;28;20662;-83
2021/11/21 11:29:26;;;;;;;8.13;7.43;;;;;;;;;;4975309;28;20233;-82
2021/11/21 11:31:53;;;;;;;11.10;7.80;;;;;;;;;;4975542;28;20201;-82
2021/11/21 11:34:37;;;;;;;7.70;7.00;;;;;;;;;;4975589;28;20570;-83
2021/11/21 11:37:10;;;;;;;9.13;8.13;;;;;;;;;;4975292;28;20276;-83
2021/11/21 11:39:42;;;;;;;8.80;7.37;;;;;;;;;;4975226;28;20225;-82
2021/11/21 11:42:34;;;;;;;9.33;8.37;;;;;;;;;;4975472;28;20285;-83
2021/11/21 11:45:01;;;;;;;10.03;7.17;;;;;;;;;;4975513;28;20206;-83
2021/11/21 11:47:29;;;;;;;9.37;8.13;;;;;;;;;;4975053;28;20584;-83
2021/11/21 11:49:58;;;;;;;9.33;7.53;;;;;;;;;;4975014;28;20706;-83
2021/11/21 11:52:55;;;;;;;10.47;8.07;;;;;;;;;;4975285;28;20193;-83
2021/11/21 11:55:24;;;;;;;8.07;7.37;;;;;;;;;;4975165;28;20189;-83
2021/11/21 11:57:52;;;;;;;7.63;6.93;;;;;;;;;;4975155;28;20198;-85
2021/11/21 12:00:30;;;;;;;9.10;8.30;;;;;;;;;;4973432;28;20210;-85
2021/11/21 12:02:59;;;;;;;8.27;7.57;;;;;;;;;;4964110;28;20617;-86
2021/11/21 12:05:32;;;;;;;9.70;8.90;;;;;;;;;;4973886;28;20662;-85
2021/11/21 12:08:13;;;;;;;10.73;9.40;;;;;;;;;;4974333;28;20284;-85
2021/11/21 12:10:51;;;;;;;8.90;8.20;;;;;;;;;;4954899;29;20704;-86
2021/11/21 12:13:30;;;;;;;8.60;7.80;;;;;;;;;;4955017;29;20277;-86
2021/11/21 12:16:00;;;;;;;10.37;9.37;;;;;;;;;;4954425;29;20202;-85
2021/11/21 12:18:57;;;;;;;9.43;8.53;;;;;;;;;;4955099;29;20190;-86
2021/11/21 12:21:38;;;;;;;10.17;8.83;;;;;;;;;;4954981;29;20278;-86
2021/11/21 12:24:07;;;;;;;8.70;7.80;;;;;;;;;;4954984;29;20195;-85
2021/11/21 12:26:36;;;;;;;8.47;7.63;;;;;;;;;;4954517;29;20208;-86
2021/11/21 12:29:08;;;;;;;9.70;7.73;;;;;;;;;;4957236;28;20244;-84
2021/11/21 12:31:38;;;;;;;9.07;6.63;;;;;;;;;;4961573;28;20237;-84
2021/11/21 12:34:31;;;;;;;10.00;8.57;;;;;;;;;;4973588;28;20201;-85
2021/11/21 12:37:26;;;;;;;9.83;8.87;;;;;;;;;;4974209;28;20357;-85
2021/11/21 12:39:57;;;;;;;10.43;9.03;;;;;;;;;;4965104;28;20198;-85
2021/11/21 12:42:27;;;;;;;10.03;9.10;;;;;;;;;;4970953;28;20268;-85
2021/11/21 12:45:07;;;;;;;9.50;8.30;;;;;;;;;;4970666;28;20201;-84
2021/11/21 12:47:34;;;;;;;10.23;8.30;;;;;;;;;;4973410;28;20196;-85
2021/11/21 12:50:01;;;;;;;10.97;8.93;;;;;;;;;;4973417;28;20221;-85
2021/11/21 12:52:30;;;;;;;9.57;8.63;;;;;;;;;;4973643;28;20256;-84
2021/11/21 12:54:57;;;;;;;9.33;8.33;;;;;;;;;;4973387;28;20284;-85
2021/11/21 12:57:26;;;;;;;12.13;9.10;;;;;;;;;;4973350;28;20224;-85
2021/11/21 12:59:55;;;;;;;9.43;8.57;;;;;;;;;;4973352;28;20198;-85
2021/11/21 13:02:25;;;;;;;10.77;9.73;;;;;;;;;;4972666;28;20327;-84
2021/11/21 13:04:56;;;;;;;9.37;8.37;;;;;;;;;;4972872;28;20614;-85
2021/11/21 13:07:33;;;;;;;9.63;8.53;;;;;;;;;;4973025;28;20196;-84
2021/11/21 13:10:07;;;;;;;11.00;9.67;;;;;;;;;;4973161;28;20299;-85
2021/11/21 13:12:36;;;;;;;10.23;9.20;;;;;;;;;;4973145;28;20630;-85
2021/11/21 13:15:06;;;;;;;12.47;11.07;;;;;;;;;;4972664;28;20205;-86
2021/11/21 13:17:34;;;;;;;13.23;10.83;;;;;;;;;;4985657;28;20195;-85
2021/11/21 13:20:07;;;;;;;9.40;8.50;;;;;;;;;;4973193;28;20261;-84
2021/11/21 13:22:58;;;;;;;12.17;10.73;;;;;;;;;;4965150;28;20285;-85
2021/11/21 13:25:47;;;;;;;11.20;9.13;;;;;;;;;;4972587;28;20193;-85
2021/11/21 13:28:45;;;;;;;19.03;17.13;;;;;;;;;;4972884;28;20564;-84
2021/11/21 13:31:23;;;;;;;17.80;15.90;;;;;;;;;;4972660;28;20590;-85
2021/11/21 13:33:55;;;;;;;29.33;20.60;;;;;;;;;;4963118;28;20249;-85
2021/11/21 13:36:28;;;;;;;14.23;11.87;;;;;;;;;;4959650;28;20208;-85
2021/11/21 13:39:02;;;;;;;18.97;16.97;;;;;;;;;;4972638;28;20193;-85
2021/11/21 13:41:30;;;;;;;13.50;11.90;;;;;;;;;;4972683;28;20551;-85
2021/11/21 13:44:06;;;;;;;17.97;14.67;;;;;;;;;;4968426;28;20261;-84
2021/11/21 13:46:35;;;;;;;17.67;13.10;;;;;;;;;;4970922;28;20267;-87
2021/11/21 13:49:13;;;;;;;14.00;11.10;;;;;;;;;;4970887;28;20236;-87
2021/11/21 13:51:41;;;;;;;17.13;12.53;;;;;;;;;;4972550;28;20700;-86
2021/11/21 13:54:09;;;;;;;14.97;9.77;;;;;;;;;;4972760;28;20236;-86
2021/11/21 13:56:42;;;;;;;13.37;10.47;;;;;;;;;;4972979;28;20201;-86
2021/11/21 13:59:13;;;;;;;11.90;10.60;;;;;;;;;;4972376;28;20205;-84
2021/11/21 14:01:46;;;;;;;11.30;10.03;;;;;;;;;;4973140;28;20232;-86
2021/11/21 14:04:13;;;;;;;12.37;11.20;;;;;;;;;;4973445;28;20235;-85
2021/11/21 14:06:40;;;;;;;13.03;11.73;;;;;;;;;;4973317;28;20193;-85
2021/11/21 14:09:11;;;;;;;14.40;10.67;;;;;;;;;;4972872;28;20236;-85
2021/11/21 14:11:41;;;;;;;26.20;19.80;;;;;;;;;;4972563;28;20211;-86
2021/11/21 14:14:10;;;;;;;23.73;19.03;;;;;;;;;;4973270;28;20205;-85
2021/11/21 14:16:45;;;;;;;21.43;15.20;;;;;;;;;;4972960;28;20669;-86
2021/11/21 14:19:29;;;;;;;26.80;21.87;;;;;;;;;;4972807;28;20210;-85
2021/11/21 14:22:08;;;;;;;23.27;20.83;;;;;;;;;;4973033;28;20201;-86
2021/11/21 14:24:38;;;;;;;16.17;14.67;;;;;;;;;;4972395;28;20562;-86
2021/11/21 14:27:16;;;;;;;16.10;14.60;;;;;;;;;;4963841;28;20238;-86
2021/11/21 14:29:52;;;;;;;15.83;12.07;;;;;;;;;;4970218;28;20308;-86
2021/11/21 14:32:20;;;;;;;16.33;12.33;;;;;;;;;;4973091;28;20185;-86
2021/11/21 14:34:47;;;;;;;15.13;13.73;;;;;;;;;;4973007;28;20386;-86
2021/11/21 14:37:17;;;;;;;11.90;10.80;;;;;;;;;;4972974;28;20237;-86
2021/11/21 14:39:46;;;;;;;15.13;13.57;;;;;;;;;;4972802;28;20197;-86
2021/11/21 14:42:15;;;;;;;15.67;14.17;;;;;;;;;;4964769;28;20317;-84
2021/11/21 14:44:44;;;;;;;26.13;19.73;;;;;;;;;;4970100;28;20216;-85
2021/11/21 14:47:16;;;;;;;33.80;27.17;;;;;;;;;;4972683;28;20207;-85